createdAt,value
2018-09-26T00:00:28.861Z,63.40
2018-09-26T00:03:03.281Z,64.70
2018-09-26T00:05:33.445Z,65.00
2018-09-26T00:08:03.724Z,64.80
2018-09-26T00:10:33.952Z,65.40
2018-09-26T00:13:04.180Z,65.10
2018-09-26T00:15:34.403Z,65.60
2018-09-26T00:18:04.599Z,65.80
2018-09-26T00:20:34.780Z,65.70
2018-09-26T00:23:05.159Z,66.00
2018-09-26T00:25:36.073Z,66.30
2018-09-26T00:28:06.262Z,66.50
2018-09-26T00:30:36.511Z,66.80
2018-09-26T00:33:06.777Z,66.90
2018-09-26T00:35:36.962Z,67.40
2018-09-26T00:38:07.166Z,67.70
2018-09-26T00:40:37.412Z,68.10
2018-09-26T00:43:07.720Z,68.10
2018-09-26T00:45:37.959Z,68.00
2018-09-26T00:48:07.740Z,68.50
2018-09-26T00:50:37.961Z,68.50
2018-09-26T00:53:08.252Z,68.90
2018-09-26T00:55:38.440Z,68.90
2018-09-26T00:58:08.690Z,68.10
2018-09-26T01:00:39.704Z,68.50
2018-09-26T01:03:09.992Z,68.70
2018-09-26T01:05:40.180Z,68.60
2018-09-26T01:08:10.454Z,68.70
2018-09-26T01:10:40.710Z,68.60
2018-09-26T01:13:10.949Z,68.80
2018-09-26T01:15:41.945Z,68.40
2018-09-26T01:18:12.360Z,68.30
2018-09-26T01:20:46.072Z,68.30
2018-09-26T01:23:16.336Z,68.10
2018-09-26T01:25:46.540Z,67.70
2018-09-26T01:28:16.746Z,67.60
2018-09-26T01:30:46.953Z,67.70
2018-09-26T01:33:17.156Z,67.60
2018-09-26T01:35:47.368Z,67.70
2018-09-26T01:38:17.830Z,67.80
2018-09-26T01:40:48.017Z,67.70
2018-09-26T01:43:18.141Z,67.70
2018-09-26T01:45:48.311Z,67.50
2018-09-26T01:48:18.481Z,67.50
2018-09-26T01:50:48.701Z,67.50
2018-09-26T01:53:18.948Z,67.50
2018-09-26T01:55:49.184Z,67.50
2018-09-26T01:58:19.372Z,67.70
2018-09-26T02:00:49.704Z,67.90
2018-09-26T02:03:19.877Z,67.90
2018-09-26T02:05:50.082Z,67.90
2018-09-26T02:08:20.252Z,68.00
2018-09-26T02:10:50.492Z,67.70
2018-09-26T02:13:20.692Z,68.30
2018-09-26T02:15:50.954Z,68.30
2018-09-26T02:18:21.261Z,68.50
2018-09-26T02:20:51.504Z,68.60
2018-09-26T02:23:28.139Z,68.40
2018-09-26T02:25:58.320Z,68.30
2018-09-26T02:28:28.559Z,68.40
2018-09-26T02:30:58.780Z,68.40
2018-09-26T02:33:29.437Z,68.80
2018-09-26T02:35:59.716Z,69.00
2018-09-26T02:38:36.348Z,68.70
2018-09-26T02:41:06.623Z,68.50
2018-09-26T02:43:36.877Z,68.20
2018-09-26T02:46:07.034Z,69.00
2018-09-26T02:48:42.268Z,69.10
2018-09-26T02:51:12.417Z,69.20
2018-09-26T02:53:42.675Z,69.20
2018-09-26T02:56:13.592Z,69.50
2018-09-26T02:58:43.876Z,69.30
2018-09-26T03:01:15.699Z,69.20
2018-09-26T03:04:01.506Z,69.30
2018-09-26T03:06:35.099Z,69.50
2018-09-26T03:09:06.563Z,69.60
2018-09-26T03:11:43.196Z,69.50
2018-09-26T03:14:13.347Z,69.70
2018-09-26T03:16:43.520Z,69.70
2018-09-26T03:19:13.765Z,69.70
2018-09-26T03:21:43.901Z,69.70
2018-09-26T03:24:14.138Z,70.00
2018-09-26T03:26:44.309Z,70.30
2018-09-26T03:29:14.388Z,70.00
2018-09-26T03:31:44.963Z,70.10
2018-09-26T03:34:15.080Z,70.60
2018-09-26T03:36:45.211Z,70.20
2018-09-26T03:39:15.196Z,70.30
2018-09-26T03:41:45.320Z,70.30
2018-09-26T03:44:15.520Z,70.30
2018-09-26T03:46:45.769Z,70.30
2018-09-26T03:49:16.084Z,70.10
2018-09-26T03:51:46.377Z,70.20
2018-09-26T03:54:16.654Z,70.20
2018-09-26T03:56:46.904Z,70.60
2018-09-26T03:59:17.179Z,70.80
2018-09-26T04:01:47.352Z,71.00
2018-09-26T04:04:17.563Z,70.70
2018-09-26T04:06:47.839Z,70.70
2018-09-26T04:09:18.161Z,70.80
2018-09-26T04:11:48.447Z,70.50
2018-09-26T04:14:18.680Z,70.60
2018-09-26T04:16:48.999Z,70.60
2018-09-26T04:19:19.477Z,70.90
2018-09-26T04:24:58.263Z,71.10
2018-09-26T04:27:30.556Z,70.90
2018-09-26T04:30:09.985Z,70.60
2018-09-26T04:36:03.341Z,70.60
2018-09-26T04:38:33.805Z,71.20
2018-09-26T04:41:05.024Z,70.30
2018-09-26T04:43:35.283Z,70.00
2018-09-26T04:46:05.634Z,69.60
2018-09-26T04:49:30.689Z,69.60
2018-09-26T04:52:01.031Z,69.60
2018-09-26T04:54:32.516Z,69.60
2018-09-26T04:57:02.979Z,69.30
2018-09-26T04:59:33.259Z,69.10
2018-09-26T05:02:03.653Z,69.10
2018-09-26T05:04:34.045Z,69.20
2018-09-26T05:07:04.598Z,69.20
2018-09-26T05:09:35.092Z,69.20
2018-09-26T05:12:05.517Z,69.20
2018-09-26T05:14:35.880Z,69.20
2018-09-26T05:17:06.440Z,69.40
2018-09-26T05:19:36.858Z,69.60
2018-09-26T05:22:07.672Z,69.60
2018-09-26T05:24:38.152Z,69.50
2018-09-26T05:27:08.841Z,69.70
2018-09-26T05:29:39.301Z,69.80
2018-09-26T05:32:09.831Z,70.20
2018-09-26T05:34:40.280Z,70.20
2018-09-26T05:37:10.711Z,70.40
2018-09-26T05:39:41.259Z,70.60
2018-09-26T05:42:11.742Z,70.50
2018-09-26T05:44:42.176Z,70.50
2018-09-26T05:47:12.673Z,70.60
2018-09-26T05:49:43.090Z,70.80
2018-09-26T05:52:13.680Z,70.90
2018-09-26T05:54:44.134Z,70.90
2018-09-26T05:57:14.951Z,71.00
2018-09-26T05:59:45.724Z,71.10
2018-09-26T06:02:16.373Z,71.40
2018-09-26T06:04:47.047Z,71.50
2018-09-26T06:07:17.741Z,71.20
2018-09-26T06:09:48.307Z,71.40
2018-09-26T06:12:18.979Z,71.50
2018-09-26T06:14:49.819Z,71.50
2018-09-26T06:17:20.341Z,71.50
2018-09-26T06:19:50.962Z,71.50
2018-09-26T06:22:21.678Z,71.50
2018-09-26T06:24:52.492Z,71.20
2018-09-26T06:27:23.278Z,71.20
2018-09-26T06:29:54.111Z,71.70
2018-09-26T06:32:25.035Z,71.80
2018-09-26T06:34:55.814Z,72.00
2018-09-26T06:37:26.543Z,71.90
2018-09-26T06:39:58.600Z,71.60
2018-09-26T06:42:29.574Z,71.50
2018-09-26T06:45:10.571Z,71.60
2018-09-26T06:47:41.680Z,71.90
2018-09-26T06:50:12.450Z,71.60
2018-09-26T06:52:43.053Z,71.70
2018-09-26T06:55:13.704Z,71.80
2018-09-26T06:57:44.221Z,71.50
2018-09-26T07:00:14.745Z,71.50
2018-09-26T07:02:45.352Z,71.30
2018-09-26T07:05:15.840Z,71.60
2018-09-26T07:07:46.264Z,71.90
2018-09-26T07:10:16.628Z,71.60
2018-09-26T07:12:47.053Z,71.70
2018-09-26T07:15:17.538Z,71.30
2018-09-26T07:17:47.995Z,71.50
2018-09-26T07:20:18.334Z,71.20
2018-09-26T07:22:48.817Z,71.30
2018-09-26T07:25:19.843Z,70.80
2018-09-26T07:27:50.434Z,70.70
2018-09-26T07:30:20.819Z,70.60
2018-09-26T07:32:51.551Z,70.70
2018-09-26T07:35:21.848Z,70.50
2018-09-26T07:37:52.322Z,70.50
2018-09-26T07:40:22.885Z,70.70
2018-09-26T07:42:53.393Z,70.60
2018-09-26T07:45:23.913Z,70.40
2018-09-26T07:47:54.384Z,70.30
2018-09-26T07:50:24.848Z,70.00
2018-09-26T07:52:55.325Z,69.60
2018-09-26T07:55:25.763Z,69.10
2018-09-26T07:57:56.178Z,68.90
2018-09-26T08:00:26.638Z,68.80
2018-09-26T08:02:57.247Z,68.40
2018-09-26T08:05:27.655Z,68.50
2018-09-26T08:07:58.120Z,66.80
2018-09-26T08:10:28.484Z,67.00
2018-09-26T08:12:59.006Z,66.70
2018-09-26T08:15:29.554Z,66.10
2018-09-26T08:18:00.089Z,65.80
2018-09-26T08:20:30.558Z,65.70
2018-09-26T08:23:01.112Z,65.60
2018-09-26T08:25:31.732Z,65.50
2018-09-26T08:28:02.086Z,65.30
2018-09-26T08:30:32.542Z,64.80
2018-09-26T08:33:03.136Z,63.90
2018-09-26T08:35:33.710Z,63.50
2018-09-26T08:38:04.188Z,63.70
2018-09-26T08:40:34.650Z,63.60
2018-09-26T08:43:05.104Z,63.00
2018-09-26T08:45:35.576Z,62.80
2018-09-26T08:48:06.141Z,62.70
2018-09-26T08:50:36.568Z,63.00
2018-09-26T08:53:07.227Z,62.80
2018-09-26T08:55:37.700Z,62.80
2018-09-26T08:58:08.162Z,62.30
2018-09-26T09:00:38.874Z,62.10
2018-09-26T09:03:09.390Z,62.00
2018-09-26T09:05:39.817Z,62.20
2018-09-26T09:08:10.300Z,62.00
2018-09-26T09:10:40.720Z,62.30
2018-09-26T09:13:11.220Z,62.00
2018-09-26T09:15:41.686Z,61.80
2018-09-26T09:18:12.476Z,61.60
2018-09-26T09:20:42.983Z,61.00
2018-09-26T09:23:13.607Z,60.80
2018-09-26T09:25:44.169Z,59.60
2018-09-26T09:28:14.701Z,59.90
2018-09-26T09:30:45.177Z,59.60
2018-09-26T09:33:15.800Z,59.10
2018-09-26T09:35:46.433Z,58.90
2018-09-26T09:38:16.870Z,58.60
2018-09-26T09:40:47.371Z,58.50
2018-09-26T09:43:17.859Z,58.30
2018-09-26T09:45:48.280Z,57.80
2018-09-26T09:48:18.684Z,56.70
2018-09-26T09:50:49.247Z,57.10
2018-09-26T09:53:20.566Z,57.10
2018-09-26T09:55:52.212Z,56.90
2018-09-26T09:58:23.215Z,56.70
2018-09-26T10:00:58.572Z,56.40
2018-09-26T10:03:29.005Z,56.00
2018-09-26T10:05:59.501Z,55.10
2018-09-26T10:08:29.934Z,55.60
2018-09-26T10:11:00.293Z,55.10
2018-09-26T10:13:30.788Z,55.60
2018-09-26T10:16:01.156Z,55.90
2018-09-26T10:18:31.607Z,55.70
2018-09-26T10:21:02.081Z,55.40
2018-09-26T10:23:32.637Z,55.00
2018-09-26T10:26:02.936Z,54.80
2018-09-26T10:28:33.253Z,54.40
2018-09-26T10:31:03.559Z,54.30
2018-09-26T10:33:34.184Z,54.70
2018-09-26T10:36:04.613Z,54.50
2018-09-26T10:38:35.263Z,54.50
2018-09-26T10:41:05.696Z,54.00
2018-09-26T10:43:36.135Z,54.10
2018-09-26T10:46:06.544Z,54.10
2018-09-26T10:48:36.894Z,54.20
2018-09-26T10:51:17.005Z,53.80
2018-09-26T10:53:47.701Z,53.40
2018-09-26T10:56:18.695Z,53.20
2018-09-26T10:58:49.304Z,53.20
2018-09-26T11:01:19.832Z,52.50
2018-09-26T11:03:52.468Z,52.00
2018-09-26T11:06:23.244Z,51.70
2018-09-26T11:08:54.379Z,52.30
2018-09-26T11:11:25.270Z,52.50
2018-09-26T11:13:56.963Z,51.40
2018-09-26T14:25:20.395Z,43.00
2018-09-26T15:30:01.846Z,41.50
2018-09-26T15:38:39.926Z,40.80
2018-09-26T15:44:11.313Z,40.50
2018-09-26T16:03:06.091Z,40.10
2018-09-26T16:05:36.888Z,40.30
2018-09-26T16:08:09.391Z,40.90
2018-09-26T16:10:39.884Z,40.70
2018-09-26T16:13:13.217Z,40.60
2018-09-26T16:15:44.617Z,40.30
2018-09-26T16:18:18.714Z,40.10
2018-09-26T16:20:56.449Z,40.20
2018-09-26T16:23:27.107Z,40.20
2018-09-26T16:25:57.707Z,40.20
2018-09-26T16:28:33.381Z,40.30
2018-09-26T16:31:04.206Z,40.10
2018-09-26T16:33:36.220Z,40.10
2018-09-26T16:36:43.747Z,40.10
2018-09-26T16:39:15.679Z,39.80
2018-09-26T16:41:49.860Z,39.70
2018-09-26T16:44:20.633Z,39.80
2018-09-26T16:46:51.496Z,39.70
2018-09-26T16:49:22.581Z,39.80
2018-09-26T16:52:06.571Z,39.70
2018-09-26T16:57:38.992Z,39.50
2018-09-26T17:00:09.745Z,39.70
2018-09-26T17:02:40.443Z,39.90
2018-09-26T17:05:11.084Z,40.50
2018-09-26T17:07:41.733Z,40.00
2018-09-26T17:10:12.347Z,40.00
2018-09-26T17:12:43.123Z,40.10
2018-09-26T17:15:15.352Z,40.00
2018-09-26T17:17:45.853Z,40.00
2018-09-26T17:20:16.450Z,40.00
2018-09-26T17:22:47.037Z,40.10
2018-09-26T17:25:18.134Z,40.40
2018-09-26T17:27:48.613Z,40.30
2018-09-26T17:30:19.350Z,40.50
2018-09-26T17:32:50.311Z,40.50
2018-09-26T17:35:20.994Z,40.70
2018-09-26T17:37:51.948Z,40.80
2018-09-26T17:40:22.575Z,40.90
2018-09-26T17:42:53.191Z,41.10
2018-09-26T17:45:25.546Z,41.20
2018-09-26T17:47:56.413Z,41.30
2018-09-26T17:50:27.066Z,41.50
2018-09-26T17:52:57.796Z,41.70
2018-09-26T17:55:28.504Z,41.70
2018-09-26T17:57:59.565Z,41.80
2018-09-26T18:00:30.311Z,41.90
2018-09-26T18:03:00.835Z,41.90
2018-09-26T18:05:31.388Z,41.90
2018-09-26T18:08:02.325Z,42.00
2018-09-26T18:10:34.075Z,42.00
2018-09-26T18:13:04.950Z,42.10
2018-09-26T18:15:36.564Z,42.10
2018-09-26T18:18:08.063Z,42.20
2018-09-26T18:20:39.891Z,42.20
2018-09-26T18:23:11.115Z,42.30
2018-09-26T18:25:41.747Z,42.40
2018-09-26T18:28:12.296Z,42.50
2018-09-26T18:30:42.851Z,42.50
2018-09-26T18:33:13.550Z,42.60
2018-09-26T18:35:44.054Z,42.60
2018-09-26T18:38:14.682Z,42.70
2018-09-26T18:40:45.210Z,42.80
2018-09-26T18:43:15.813Z,43.00
2018-09-26T18:45:46.346Z,43.00
2018-09-26T18:48:17.129Z,43.20
2018-09-26T18:50:47.844Z,43.30
2018-09-26T18:53:18.519Z,43.30
2018-09-26T18:55:49.083Z,43.40
2018-09-26T18:58:19.771Z,43.40
2018-09-26T19:00:50.363Z,43.40
2018-09-26T19:03:20.952Z,43.40
2018-09-26T19:05:51.471Z,43.60
2018-09-26T19:08:22.075Z,43.60
2018-09-26T19:10:52.632Z,43.70
2018-09-26T19:13:23.213Z,43.60
2018-09-26T19:15:53.833Z,43.70
2018-09-26T19:18:24.492Z,43.70
2018-09-26T19:20:55.478Z,43.80
2018-09-26T19:23:26.102Z,43.90
2018-09-26T19:25:56.782Z,44.60
2018-09-26T19:28:27.504Z,44.10
2018-09-26T19:30:58.347Z,44.00
2018-09-26T19:33:29.157Z,44.00
2018-09-26T19:35:59.703Z,44.10
2018-09-26T19:38:30.372Z,44.20
2018-09-26T19:41:01.775Z,44.40
2018-09-26T19:43:38.170Z,44.50
2018-09-26T19:46:08.594Z,44.60
2018-09-26T19:48:38.935Z,44.60
2018-09-26T19:51:09.154Z,44.80
2018-09-26T19:53:39.075Z,44.90
2018-09-26T19:56:09.228Z,44.90
2018-09-26T19:58:39.187Z,45.10
2018-09-26T20:01:09.292Z,45.10
2018-09-26T20:03:39.414Z,45.20
2018-09-26T20:06:10.582Z,45.40
2018-09-26T20:08:40.547Z,45.50
2018-09-26T20:11:10.430Z,45.60
2018-09-26T20:13:40.493Z,45.70
2018-09-26T20:16:10.489Z,45.80
2018-09-26T20:18:40.862Z,45.90
2018-09-26T20:21:10.911Z,46.00
2018-09-26T20:23:41.137Z,46.00
2018-09-26T20:26:11.173Z,46.10
2018-09-26T20:28:41.297Z,46.20
2018-09-26T20:31:11.482Z,46.30
2018-09-26T20:33:41.483Z,46.30
2018-09-26T20:36:11.607Z,46.30
2018-09-26T20:38:41.681Z,46.50
2018-09-26T20:41:12.750Z,46.60
2018-09-26T20:43:42.817Z,46.60
2018-09-26T20:46:12.886Z,46.60
2018-09-26T20:48:43.016Z,46.70
2018-09-26T20:51:13.143Z,46.70
2018-09-26T20:53:43.224Z,46.80
2018-09-26T20:56:13.206Z,46.90
2018-09-26T20:58:43.502Z,46.90
2018-09-26T21:01:13.533Z,46.90
2018-09-26T21:03:43.537Z,47.00
2018-09-26T21:06:13.552Z,47.10
2018-09-26T21:08:43.611Z,47.20
2018-09-26T21:11:13.699Z,47.20
2018-09-26T21:13:43.850Z,47.40
2018-09-26T21:16:13.902Z,47.60
2018-09-26T21:18:44.023Z,47.70
2018-09-26T21:21:14.032Z,47.80
2018-09-26T21:23:44.109Z,47.80
2018-09-26T21:26:14.097Z,47.90
2018-09-26T21:28:44.040Z,48.10
2018-09-26T21:31:14.141Z,48.20
2018-09-26T21:33:47.532Z,48.20
2018-09-26T21:36:17.547Z,48.30
2018-09-26T21:38:47.606Z,48.30
2018-09-26T21:41:17.648Z,48.40
2018-09-26T21:43:47.630Z,48.60
2018-09-26T21:46:17.662Z,48.70
2018-09-26T21:48:47.685Z,48.80
2018-09-26T21:51:17.713Z,48.70
2018-09-26T21:53:47.820Z,49.00
2018-09-26T21:56:17.802Z,49.30
2018-09-26T21:58:47.791Z,49.50
2018-09-26T22:01:18.426Z,49.40
2018-09-26T22:03:48.410Z,49.70
2018-09-26T22:06:18.430Z,49.70
2018-09-26T22:08:48.537Z,50.00
2018-09-26T22:11:18.606Z,50.20
2018-09-26T22:13:48.902Z,50.40
2018-09-26T22:16:18.920Z,50.90
2018-09-26T22:18:49.280Z,50.30
2018-09-26T22:21:19.305Z,50.30
2018-09-26T22:23:49.265Z,50.40
2018-09-26T22:26:19.402Z,50.80
2018-09-26T22:28:49.348Z,51.10
2018-09-26T22:31:19.459Z,51.00
2018-09-26T22:33:49.429Z,50.80
2018-09-26T22:36:19.490Z,51.20
2018-09-26T22:38:49.363Z,51.30
2018-09-26T22:41:19.402Z,51.40
2018-09-26T22:43:49.312Z,51.50
2018-09-26T22:46:19.360Z,51.60
2018-09-26T22:48:49.223Z,51.60
2018-09-26T22:51:19.221Z,51.70
2018-09-26T22:53:49.202Z,51.90
2018-09-26T22:56:19.204Z,52.00
2018-09-26T22:58:49.147Z,52.40
2018-09-26T23:01:19.454Z,52.60
2018-09-26T23:03:49.369Z,52.60
2018-09-26T23:06:19.327Z,52.70
2018-09-26T23:08:49.280Z,52.80
2018-09-26T23:11:19.243Z,52.80
2018-09-26T23:13:49.191Z,52.70
2018-09-26T23:16:19.310Z,52.90
2018-09-26T23:18:49.284Z,53.00
2018-09-26T23:21:19.332Z,52.90
2018-09-26T23:23:49.264Z,53.10
2018-09-26T23:26:19.210Z,53.00
2018-09-26T23:28:49.202Z,53.20
2018-09-26T23:31:19.190Z,53.20
2018-09-26T23:33:49.211Z,53.30
2018-09-26T23:36:19.220Z,53.10
2018-09-26T23:38:49.164Z,53.30
2018-09-26T23:41:19.451Z,53.50
2018-09-26T23:43:49.370Z,53.60
2018-09-26T23:46:19.340Z,53.70
2018-09-26T23:48:49.303Z,53.80
2018-09-26T23:51:19.276Z,54.00
2018-09-26T23:53:49.387Z,54.10
2018-09-26T23:56:19.552Z,54.10
2018-09-26T23:58:49.504Z,54.40
